Аэропорт: Львов имени Даниила Галицкого. Львов

ICAO: UKLL

METAR:
2019-11-21 09:30:00
UKLL 210930Z 14010MPS 9999 BKN007 BKN016CB 05/03 Q1022 R13/290055 TEMPO 13010G17MPS
METAR:
2019-11-21 06:11:00
TAF AMD UKLL 210611Z 2106/2206 14009G14MPS 3000 BR OVC005 TEMPO 2106/2118 13010G17MPS 2100 -SHRA BR SCT003 BKN020CB BECMG 2118/2120 14008G14MPS BKN007